createdAt,value
2023-01-22T00:00:09.153Z,97764.31
2023-01-22T00:02:37.225Z,97759.09
2023-01-22T00:05:05.088Z,97763.25
2023-01-22T00:07:34.152Z,97768.22
2023-01-22T00:10:00.901Z,97766.91
2023-01-22T00:12:27.929Z,97765.03
2023-01-22T00:14:54.631Z,97761.63
2023-01-22T00:17:21.225Z,97764.25
2023-01-22T00:19:47.871Z,97765.66
2023-01-22T00:22:14.452Z,97765.09
2023-01-22T00:24:41.127Z,97771.06
2023-01-22T00:27:07.873Z,97761.66
2023-01-22T00:29:37.625Z,97763.28
2023-01-22T00:32:04.555Z,97765.94
2023-01-22T00:34:31.317Z,97765.84
2023-01-22T00:36:58.269Z,97772.59
2023-01-22T00:39:27.132Z,97774.31
2023-01-22T00:41:53.685Z,97769.31
2023-01-22T00:44:20.294Z,97774.31
2023-01-22T00:46:46.954Z,97773.59
2023-01-22T00:49:13.537Z,97778.75
2023-01-22T00:51:40.311Z,97777.94
2023-01-22T00:54:07.091Z,97773.38
2023-01-22T00:56:33.819Z,97776.88
2023-01-22T00:59:00.440Z,97775.41
2023-01-22T01:01:27.141Z,97773.81
2023-01-22T01:03:53.762Z,97773.44
2023-01-22T01:06:22.102Z,97779.56
2023-01-22T01:08:50.232Z,97773.56
2023-01-22T01:11:22.718Z,97765.59
2023-01-22T01:13:50.968Z,97769.97
2023-01-22T01:16:29.883Z,97772.72
2023-01-22T01:19:01.377Z,97770.97
2023-01-22T01:21:28.734Z,97773.41
2023-01-22T01:23:57.353Z,97773.56
2023-01-22T01:26:24.932Z,97780.53
2023-01-22T01:28:55.032Z,97778.94
2023-01-22T01:31:23.882Z,97779.03
2023-01-22T01:33:50.543Z,97772.88
2023-01-22T01:36:30.643Z,97775.50
2023-01-22T01:39:04.997Z,97776.00
2023-01-22T01:41:31.876Z,97770.06
2023-01-22T01:44:10.808Z,97772.69
2023-01-22T01:46:51.948Z,97780.06
2023-01-22T01:49:21.264Z,97776.19
2023-01-22T01:51:48.852Z,97775.66
2023-01-22T01:54:16.274Z,97777.03
2023-01-22T01:56:51.013Z,97778.63
2023-01-22T01:59:20.115Z,97779.06
2023-01-22T02:01:53.599Z,97775.66
2023-01-22T02:04:20.406Z,97784.19
2023-01-22T02:06:47.065Z,97784.19
2023-01-22T02:09:14.487Z,97791.63
2023-01-22T02:11:41.285Z,97789.44
2023-01-22T02:14:12.929Z,97781.88
2023-01-22T02:16:39.735Z,97787.06
2023-01-22T02:19:06.381Z,97780.28
2023-01-22T02:21:32.942Z,97774.16
2023-01-22T02:24:00.145Z,97780.22
2023-01-22T02:26:26.926Z,97783.13
2023-01-22T02:28:53.849Z,97786.75
2023-01-22T02:31:22.727Z,97785.00
2023-01-22T02:33:49.468Z,97794.84
2023-01-22T02:36:18.448Z,97793.97
2023-01-22T02:38:45.033Z,97798.38
2023-01-22T02:41:12.025Z,97800.78
2023-01-22T02:43:39.226Z,97805.84
2023-01-22T02:46:05.905Z,97798.00
2023-01-22T02:48:32.590Z,97799.75
2023-01-22T02:50:59.255Z,97805.59
2023-01-22T02:53:26.151Z,97798.81
2023-01-22T02:55:52.785Z,97810.88
2023-01-22T02:58:19.363Z,97808.31
2023-01-22T03:00:45.891Z,97806.50
2023-01-22T03:03:15.375Z,97810.00
2023-01-22T03:05:52.218Z,97817.97
2023-01-22T03:08:22.254Z,97813.56
2023-01-22T03:10:48.808Z,97805.91
2023-01-22T03:13:33.717Z,97807.66
2023-01-22T03:16:22.661Z,97812.00
2023-01-22T03:19:08.026Z,97813.13
2023-01-22T03:21:34.645Z,97820.81
2023-01-22T03:24:01.192Z,97817.22
2023-01-22T03:26:31.614Z,97819.88
2023-01-22T03:29:00.669Z,97819.94
2023-01-22T03:31:27.445Z,97813.75
2023-01-22T03:33:54.140Z,97817.00
2023-01-22T03:36:20.706Z,97824.69
2023-01-22T03:38:47.662Z,97809.19
2023-01-22T03:41:17.083Z,97815.22
2023-01-22T03:43:46.468Z,97812.47
2023-01-22T03:46:16.383Z,97820.88
2023-01-22T03:48:44.472Z,97821.88
2023-01-22T03:51:14.759Z,97817.59
2023-01-22T03:53:43.378Z,97822.78
2023-01-22T03:56:17.881Z,97825.38
2023-01-22T03:58:45.049Z,97818.31
2023-01-22T04:01:14.564Z,97834.50
2023-01-22T04:03:41.629Z,97831.94
2023-01-22T04:06:10.606Z,97825.88
2023-01-22T04:08:41.069Z,97828.41
2023-01-22T04:11:08.127Z,97829.34
2023-01-22T04:13:36.191Z,97831.09
2023-01-22T04:16:03.423Z,97834.66
2023-01-22T04:18:30.644Z,97828.44
2023-01-22T04:20:57.660Z,97836.94
2023-01-22T04:23:25.348Z,97840.03
2023-01-22T04:25:52.819Z,97831.41
2023-01-22T04:28:20.061Z,97842.69
2023-01-22T04:30:49.332Z,97833.16
2023-01-22T04:33:15.936Z,97839.13
2023-01-22T04:35:42.525Z,97844.44
2023-01-22T04:38:12.966Z,97847.19
2023-01-22T04:40:40.080Z,97850.28
2023-01-22T04:43:09.696Z,97847.94
2023-01-22T04:45:38.953Z,97852.22
2023-01-22T04:48:08.479Z,97849.00
2023-01-22T04:50:37.404Z,97847.25
2023-01-22T04:53:05.072Z,97857.44
2023-01-22T04:55:33.962Z,97858.09
2023-01-22T04:58:01.311Z,97858.88
2023-01-22T05:00:31.220Z,97853.84
2023-01-22T05:02:59.421Z,97859.84
2023-01-22T05:05:27.292Z,97861.44
2023-01-22T05:07:56.343Z,97868.28
2023-01-22T05:10:23.777Z,97868.44
2023-01-22T05:12:53.000Z,97864.94
2023-01-22T05:15:24.352Z,97862.41
2023-01-22T05:17:51.858Z,97871.91
2023-01-22T05:20:18.834Z,97874.97
2023-01-22T05:22:45.523Z,97876.06
2023-01-22T05:25:12.644Z,97870.94
2023-01-22T05:27:39.280Z,97875.47
2023-01-22T05:30:07.333Z,97870.38
2023-01-22T05:32:36.536Z,97878.88
2023-01-22T05:35:04.385Z,97871.91
2023-01-22T05:37:31.970Z,97873.53
2023-01-22T05:39:58.572Z,97873.66
2023-01-22T05:42:25.226Z,97875.69
2023-01-22T05:44:51.771Z,97885.94
2023-01-22T05:47:18.624Z,97878.78
2023-01-22T05:49:45.204Z,97877.84
2023-01-22T05:52:11.806Z,97885.41
2023-01-22T05:54:40.785Z,97879.44
2023-01-22T05:57:07.636Z,97877.63
2023-01-22T05:59:34.650Z,97885.53
2023-01-22T06:02:01.825Z,97882.25
2023-01-22T06:04:28.861Z,97878.78
2023-01-22T06:06:55.537Z,97877.78
2023-01-22T06:09:22.636Z,97885.59
2023-01-22T06:11:49.388Z,97893.09
2023-01-22T06:14:18.587Z,97890.34
2023-01-22T06:16:45.168Z,97894.53
2023-01-22T06:19:12.572Z,97904.69
2023-01-22T06:21:39.188Z,97897.22
2023-01-22T06:24:06.193Z,97886.03
2023-01-22T06:26:32.854Z,97889.50
2023-01-22T06:28:59.399Z,97891.09
2023-01-22T06:31:26.196Z,97895.41
2023-01-22T06:33:54.658Z,97902.34
2023-01-22T06:36:21.213Z,97897.09
2023-01-22T06:38:48.091Z,97898.72
2023-01-22T06:41:16.945Z,97912.28
2023-01-22T06:43:43.537Z,97926.09
2023-01-22T06:46:10.320Z,97923.63
2023-01-22T06:48:36.990Z,97925.22
2023-01-22T06:51:03.828Z,97931.34
2023-01-22T06:53:30.611Z,97926.84
2023-01-22T06:55:59.547Z,97933.81
2023-01-22T06:58:26.386Z,97937.78
2023-01-22T07:00:53.002Z,97939.44
2023-01-22T07:03:20.378Z,97944.66
2023-01-22T07:05:46.886Z,97943.13
2023-01-22T07:08:15.266Z,97937.97
2023-01-22T07:10:42.219Z,97940.47
2023-01-22T07:13:10.261Z,97939.75
2023-01-22T07:15:39.082Z,97946.69
2023-01-22T07:18:05.631Z,97957.09
2023-01-22T07:20:32.770Z,97943.53
2023-01-22T07:23:00.262Z,97941.03
2023-01-22T07:25:27.621Z,97947.44
2023-01-22T07:28:01.696Z,97951.91
2023-01-22T07:30:31.110Z,97956.00
2023-01-22T07:33:02.450Z,97963.09
2023-01-22T07:35:30.084Z,97957.97
2023-01-22T07:37:58.498Z,97964.63
2023-01-22T07:40:25.950Z,97968.00
2023-01-22T07:42:53.302Z,97970.38
2023-01-22T07:45:21.100Z,97965.97
2023-01-22T07:47:59.162Z,97968.44
2023-01-22T07:50:28.915Z,97979.59
2023-01-22T07:52:56.222Z,97976.09
2023-01-22T07:55:23.858Z,97985.34
2023-01-22T07:58:01.232Z,97984.94
2023-01-22T08:00:27.908Z,97992.13
2023-01-22T08:02:56.735Z,98002.47
2023-01-22T08:05:23.559Z,98002.94
2023-01-22T08:07:52.735Z,98004.66
2023-01-22T08:10:20.372Z,98005.53
2023-01-22T08:12:47.488Z,98015.81
2023-01-22T08:15:18.850Z,98018.06
2023-01-22T08:17:48.302Z,98029.25
2023-01-22T08:20:14.874Z,98026.56
2023-01-22T08:22:41.495Z,98035.81
2023-01-22T08:25:08.409Z,98040.94
2023-01-22T08:27:37.498Z,98033.47
2023-01-22T08:30:05.347Z,98039.31
2023-01-22T08:32:32.012Z,98036.25
2023-01-22T08:34:58.632Z,98053.31
2023-01-22T08:37:25.570Z,98046.38
2023-01-22T08:39:52.189Z,98043.66
2023-01-22T08:42:18.939Z,98054.03
2023-01-22T08:44:45.499Z,98056.25
2023-01-22T08:47:12.496Z,98052.13
2023-01-22T08:49:39.093Z,98056.06
2023-01-22T08:52:06.134Z,98051.19
2023-01-22T08:54:32.735Z,98057.81
2023-01-22T08:56:59.408Z,98052.25
2023-01-22T08:59:25.976Z,98049.63
2023-01-22T09:01:55.104Z,98047.16
2023-01-22T09:04:22.599Z,98038.09
2023-01-22T09:06:49.156Z,98037.53
2023-01-22T09:09:15.829Z,98032.38
2023-01-22T09:11:42.426Z,98049.97
2023-01-22T09:14:11.215Z,98063.88
2023-01-22T09:16:37.921Z,98060.81
2023-01-22T09:19:05.694Z,98064.81
2023-01-22T09:21:33.837Z,98064.56
2023-01-22T09:24:00.959Z,98074.97
2023-01-22T09:26:27.574Z,98060.84
2023-01-22T09:28:54.187Z,98071.47
2023-01-22T09:31:20.889Z,98067.25
2023-01-22T09:33:51.277Z,98067.94
2023-01-22T09:36:18.115Z,98066.56
2023-01-22T09:38:44.941Z,98063.56
2023-01-22T09:41:20.449Z,98061.81
2023-01-22T09:43:59.699Z,98069.13
2023-01-22T09:46:43.361Z,98062.13
2023-01-22T09:49:20.166Z,98078.38
2023-01-22T09:51:58.626Z,98066.59
2023-01-22T09:54:26.102Z,98069.78
2023-01-22T09:56:57.095Z,98069.22
2023-01-22T09:59:32.420Z,98074.19
2023-01-22T10:02:11.232Z,98080.56
2023-01-22T10:04:46.590Z,98083.44
2023-01-22T10:07:31.007Z,98080.69
2023-01-22T10:10:03.398Z,98080.88
2023-01-22T10:12:32.191Z,98071.09
2023-01-22T10:14:58.953Z,98080.28
2023-01-22T10:17:32.721Z,98083.69
2023-01-22T10:20:04.269Z,98079.50
2023-01-22T10:22:31.070Z,98088.97
2023-01-22T10:24:58.775Z,98081.47
2023-01-22T10:27:36.973Z,98083.09
2023-01-22T10:30:25.373Z,98087.44
2023-01-22T10:33:04.369Z,98079.50
2023-01-22T10:35:32.215Z,98082.63
2023-01-22T10:38:00.854Z,98083.78
2023-01-22T10:40:27.453Z,98081.59
2023-01-22T10:43:04.029Z,98082.22
2023-01-22T10:45:30.841Z,98078.72
2023-01-22T10:48:27.044Z,98079.28
2023-01-22T10:50:59.828Z,98078.34
2023-01-22T10:53:33.480Z,98078.84
2023-01-22T10:56:02.506Z,98079.81
2023-01-22T10:58:36.675Z,98078.81
2023-01-22T11:01:06.839Z,98081.13
2023-01-22T11:03:36.750Z,98079.09
2023-01-22T11:06:12.451Z,98077.22
2023-01-22T11:08:51.202Z,98078.75
2023-01-22T11:11:23.652Z,98082.03
2023-01-22T11:14:18.358Z,98073.13
2023-01-22T11:16:49.805Z,98077.94
2023-01-22T11:19:36.108Z,98076.13
2023-01-22T11:22:11.780Z,98075.47
2023-01-22T11:24:47.136Z,98079.19
2023-01-22T11:27:22.514Z,98076.50
2023-01-22T11:30:07.929Z,98071.81
2023-01-22T11:33:10.695Z,98076.31
2023-01-22T11:36:08.799Z,98067.16
2023-01-22T11:38:51.264Z,98066.53
2023-01-22T11:41:27.339Z,98068.31
2023-01-22T11:44:21.597Z,98069.72
2023-01-22T11:47:03.282Z,98062.53
2023-01-22T11:50:03.511Z,98062.31
2023-01-22T11:53:02.570Z,98060.59
2023-01-22T11:55:54.608Z,98058.97
2023-01-22T11:58:35.523Z,98064.72
2023-01-22T12:01:41.616Z,98063.31
2023-01-22T12:04:35.809Z,98065.31
2023-01-22T12:07:08.244Z,98067.84
2023-01-22T12:10:08.763Z,98066.00
2023-01-22T12:12:49.240Z,98070.34
2023-01-22T12:15:32.031Z,98066.84
2023-01-22T12:18:29.745Z,98069.28
2023-01-22T12:21:21.999Z,98076.38
2023-01-22T12:24:19.370Z,98079.47
2023-01-22T12:26:56.674Z,98083.59
2023-01-22T12:29:29.010Z,98074.22
2023-01-22T12:32:09.006Z,98081.69
2023-01-22T12:34:48.381Z,98074.19
2023-01-22T12:37:19.032Z,98080.88
2023-01-22T12:40:21.503Z,98078.22
2023-01-22T12:43:00.423Z,98079.50
2023-01-22T12:45:47.274Z,98077.34
2023-01-22T12:48:35.095Z,98074.94
2023-01-22T12:51:01.733Z,98089.69
2023-01-22T12:53:39.110Z,98088.00
2023-01-22T12:56:09.421Z,98086.00
2023-01-22T12:58:39.794Z,98093.06
2023-01-22T13:01:22.721Z,98094.06
2023-01-22T13:04:01.594Z,98098.06
2023-01-22T13:06:41.050Z,98101.69
2023-01-22T13:09:24.673Z,98100.16
2023-01-22T13:11:51.237Z,98101.72
2023-01-22T13:14:19.739Z,98103.16
2023-01-22T13:16:59.590Z,98109.06
2023-01-22T13:19:42.520Z,98114.25
2023-01-22T13:22:35.546Z,98110.91
2023-01-22T13:25:02.321Z,98114.19
2023-01-22T13:27:35.161Z,98118.59
2023-01-22T13:30:14.662Z,98115.19
2023-01-22T13:32:41.645Z,98120.81
2023-01-22T13:35:13.255Z,98124.88
2023-01-22T13:37:41.924Z,98125.97
2023-01-22T13:40:23.433Z,98124.44
2023-01-22T13:42:51.356Z,98123.84
2023-01-22T13:45:33.137Z,98129.63
2023-01-22T13:48:04.289Z,98127.00
2023-01-22T13:50:31.955Z,98122.53
2023-01-22T13:53:01.282Z,98134.56
2023-01-22T13:55:28.909Z,98129.88
2023-01-22T13:58:01.581Z,98133.50
2023-01-22T14:00:39.567Z,98137.69
2023-01-22T14:03:21.888Z,98135.25
2023-01-22T14:05:50.230Z,98124.59
2023-01-22T14:08:16.996Z,98135.75
2023-01-22T14:10:43.761Z,98130.03
2023-01-22T14:13:13.442Z,98131.06
2023-01-22T14:15:41.383Z,98137.91
2023-01-22T14:18:13.351Z,98142.66
2023-01-22T14:20:41.656Z,98143.91
2023-01-22T14:23:08.302Z,98150.91
2023-01-22T14:25:44.026Z,98142.16
2023-01-22T14:28:13.347Z,98142.97
2023-01-22T14:30:42.242Z,98142.28
2023-01-22T14:33:15.369Z,98149.69
2023-01-22T14:35:42.001Z,98156.00
2023-01-22T14:38:08.569Z,98147.56
2023-01-22T14:40:35.266Z,98151.38
2023-01-22T14:43:02.736Z,98153.53
2023-01-22T14:45:29.752Z,98147.34
2023-01-22T14:47:56.565Z,98152.69
2023-01-22T14:50:24.024Z,98147.31
2023-01-22T14:52:51.511Z,98159.59
2023-01-22T14:55:19.327Z,98165.44
2023-01-22T14:57:48.453Z,98163.72
2023-01-22T15:00:17.620Z,98164.66
2023-01-22T15:02:44.722Z,98163.59
2023-01-22T15:05:14.547Z,98154.22
2023-01-22T15:07:41.140Z,98158.56
2023-01-22T15:10:08.552Z,98157.75
2023-01-22T15:12:35.201Z,98164.09
2023-01-22T15:15:01.961Z,98164.97
2023-01-22T15:17:28.566Z,98168.69
2023-01-22T15:19:55.242Z,98169.66
2023-01-22T15:22:21.815Z,98184.13
2023-01-22T15:24:48.605Z,98176.66
2023-01-22T15:27:18.564Z,98182.63
2023-01-22T15:29:46.385Z,98188.47
2023-01-22T15:32:13.256Z,98181.94
2023-01-22T15:34:40.055Z,98184.41
2023-01-22T15:37:06.957Z,98185.94
2023-01-22T15:39:33.634Z,98184.50
2023-01-22T15:42:00.242Z,98185.47
2023-01-22T15:44:26.826Z,98193.25
2023-01-22T15:46:53.959Z,98193.47
2023-01-22T15:49:20.539Z,98187.16
2023-01-22T15:51:47.089Z,98199.13
2023-01-22T15:54:15.659Z,98188.13
2023-01-22T15:56:42.515Z,98195.72
2023-01-22T15:59:11.591Z,98196.53
2023-01-22T16:01:38.487Z,98202.09
2023-01-22T16:04:06.344Z,98199.75
2023-01-22T16:06:34.763Z,98202.59
2023-01-22T16:09:03.116Z,98203.41
2023-01-22T16:11:30.305Z,98196.47
2023-01-22T16:13:59.135Z,98194.06
2023-01-22T16:16:36.248Z,98201.13
2023-01-22T16:19:05.017Z,98207.03
2023-01-22T16:21:34.650Z,98205.41
2023-01-22T16:24:04.761Z,98209.59
2023-01-22T16:26:36.453Z,98210.50
2023-01-22T16:29:04.874Z,98211.59
2023-01-22T16:31:37.632Z,98212.31
2023-01-22T16:34:15.656Z,98215.28
2023-01-22T16:36:45.662Z,98220.28
2023-01-22T16:39:23.397Z,98222.13
2023-01-22T16:41:51.361Z,98220.78
2023-01-22T16:44:20.556Z,98227.94
2023-01-22T16:46:49.630Z,98216.84
2023-01-22T16:49:22.255Z,98228.75
2023-01-22T16:51:54.498Z,98225.50
2023-01-22T16:54:32.780Z,98234.16
2023-01-22T16:57:03.062Z,98229.84
2023-01-22T16:59:31.068Z,98237.59
2023-01-22T17:01:59.627Z,98234.22
2023-01-22T17:04:26.964Z,98232.50
2023-01-22T17:06:55.605Z,98230.81
2023-01-22T17:09:27.415Z,98237.72
2023-01-22T17:12:03.119Z,98232.13
2023-01-22T17:14:31.837Z,98236.78
2023-01-22T17:16:58.979Z,98239.19
2023-01-22T17:19:25.450Z,98233.44
2023-01-22T17:21:57.937Z,98226.78
2023-01-22T17:24:25.325Z,98228.94
2023-01-22T17:26:52.630Z,98238.34
2023-01-22T17:29:22.092Z,98237.38
2023-01-22T17:31:48.726Z,98232.25
2023-01-22T17:34:15.660Z,98240.75
2023-01-22T17:36:42.471Z,98234.91
2023-01-22T17:39:14.752Z,98241.91
2023-01-22T17:41:44.106Z,98242.50
2023-01-22T17:44:12.077Z,98243.47
2023-01-22T17:46:38.977Z,98247.09
2023-01-22T17:49:05.987Z,98252.19
2023-01-22T17:51:34.603Z,98247.97
2023-01-22T17:54:03.183Z,98255.50
2023-01-22T17:56:35.328Z,98250.28
2023-01-22T17:59:06.124Z,98258.28
2023-01-22T18:01:35.085Z,98255.91
2023-01-22T18:04:05.476Z,98260.91
2023-01-22T18:06:32.355Z,98265.28
2023-01-22T18:08:58.930Z,98263.44
2023-01-22T18:11:28.348Z,98262.59
2023-01-22T18:14:00.480Z,98269.38
2023-01-22T18:16:29.508Z,98274.53
2023-01-22T18:19:00.714Z,98279.69
2023-01-22T18:21:27.249Z,98282.31
2023-01-22T18:23:53.730Z,98284.88
2023-01-22T18:26:23.017Z,98286.69
2023-01-22T18:28:51.261Z,98289.25
2023-01-22T18:31:21.414Z,98301.19
2023-01-22T18:33:51.100Z,98302.81
2023-01-22T18:36:27.953Z,98295.88
2023-01-22T18:38:58.481Z,98308.03
2023-01-22T18:41:26.387Z,98305.53
2023-01-22T18:43:55.404Z,98309.69
2023-01-22T18:46:26.165Z,98307.03
2023-01-22T18:48:57.882Z,98310.34
2023-01-22T18:51:25.523Z,98308.63
2023-01-22T18:53:52.442Z,98309.50
2023-01-22T18:56:18.943Z,98318.97
2023-01-22T18:58:45.995Z,98314.81
2023-01-22T19:01:19.790Z,98320.78
2023-01-22T19:03:54.070Z,98314.72
2023-01-22T19:06:23.130Z,98317.28
2023-01-22T19:09:00.564Z,98319.88
2023-01-22T19:11:27.465Z,98335.09
2023-01-22T19:13:56.003Z,98329.94
2023-01-22T19:16:24.347Z,98329.22
2023-01-22T19:18:56.181Z,98337.72
2023-01-22T19:21:27.384Z,98341.16
2023-01-22T19:23:56.544Z,98343.78
2023-01-22T19:26:28.934Z,98349.03
2023-01-22T19:28:58.536Z,98347.25
2023-01-22T19:31:30.382Z,98356.59
2023-01-22T19:33:57.170Z,98353.06
2023-01-22T19:36:28.099Z,98348.00
2023-01-22T19:38:58.384Z,98346.31
2023-01-22T19:41:26.495Z,98360.84
2023-01-22T19:43:59.369Z,98359.97
2023-01-22T19:46:27.436Z,98358.25
2023-01-22T19:48:54.972Z,98351.25
2023-01-22T19:51:22.284Z,98357.28
2023-01-22T19:53:49.420Z,98359.63
2023-01-22T19:56:27.561Z,98348.75
2023-01-22T19:58:59.258Z,98364.91
2023-01-22T20:01:28.134Z,98372.06
2023-01-22T20:03:56.503Z,98378.91
2023-01-22T20:06:23.914Z,98376.31
2023-01-22T20:08:51.072Z,98373.03
2023-01-22T20:11:18.485Z,98377.41
2023-01-22T20:13:48.741Z,98387.00
2023-01-22T20:16:25.256Z,98383.69
2023-01-22T20:18:52.845Z,98386.19
2023-01-22T20:21:20.643Z,98387.91
2023-01-22T20:23:48.824Z,98390.66
2023-01-22T20:26:16.995Z,98386.25
2023-01-22T20:28:43.558Z,98385.47
2023-01-22T20:31:19.981Z,98394.00
2023-01-22T20:33:50.207Z,98389.94
2023-01-22T20:36:21.868Z,98392.47
2023-01-22T20:38:52.475Z,98392.47
2023-01-22T20:41:19.842Z,98397.75
2023-01-22T20:43:46.363Z,98395.28
2023-01-22T20:46:22.023Z,98396.91
2023-01-22T20:48:51.885Z,98407.22
2023-01-22T20:51:24.398Z,98406.28
2023-01-22T20:53:52.831Z,98414.94
2023-01-22T20:56:23.643Z,98407.47
2023-01-22T20:58:58.602Z,98410.91
2023-01-22T21:01:26.009Z,98410.94
2023-01-22T21:03:56.066Z,98405.84
2023-01-22T21:06:22.685Z,98410.25
2023-01-22T21:08:56.061Z,98418.63
2023-01-22T21:11:24.052Z,98432.44
2023-01-22T21:13:52.448Z,98425.59
2023-01-22T21:16:26.467Z,98421.31
2023-01-22T21:19:01.431Z,98423.78
2023-01-22T21:21:29.124Z,98413.56
2023-01-22T21:23:56.227Z,98418.63
2023-01-22T21:26:25.910Z,98416.91
2023-01-22T21:29:01.434Z,98416.13
2023-01-22T21:31:28.690Z,98423.81
2023-01-22T21:34:03.059Z,98424.09
2023-01-22T21:36:41.097Z,98433.44
2023-01-22T21:39:10.674Z,98440.31
2023-01-22T21:41:41.652Z,98434.41
2023-01-22T21:44:30.117Z,98430.06
2023-01-22T21:46:56.657Z,98418.97
2023-01-22T21:49:24.481Z,98429.25
2023-01-22T21:51:55.903Z,98423.34
2023-01-22T21:54:23.809Z,98419.13
2023-01-22T21:56:50.759Z,98408.13
2023-01-22T21:59:17.735Z,98408.13
2023-01-22T22:01:45.105Z,98410.72
2023-01-22T22:04:15.156Z,98408.22
2023-01-22T22:06:46.929Z,98403.97
2023-01-22T22:09:19.305Z,98398.00
2023-01-22T22:11:45.841Z,98409.94
2023-01-22T22:14:15.714Z,98421.00
2023-01-22T22:16:43.560Z,98431.25
2023-01-22T22:19:10.549Z,98448.28
2023-01-22T22:21:37.424Z,98450.88
2023-01-22T22:24:04.217Z,98452.53
2023-01-22T22:26:31.076Z,98454.97
2023-01-22T22:28:58.053Z,98449.81
2023-01-22T22:31:25.100Z,98446.47
2023-01-22T22:33:54.348Z,98458.41
2023-01-22T22:36:23.683Z,98456.72
2023-01-22T22:38:50.292Z,98450.75
2023-01-22T22:41:20.700Z,98457.50
2023-01-22T22:43:51.880Z,98462.66
2023-01-22T22:46:20.150Z,98461.75
2023-01-22T22:48:47.753Z,98466.91
2023-01-22T22:51:18.014Z,98477.16
2023-01-22T22:53:44.526Z,98470.34
2023-01-22T22:56:14.447Z,98472.03
2023-01-22T22:58:41.149Z,98465.31
2023-01-22T23:01:09.380Z,98466.13
2023-01-22T23:03:37.505Z,98482.31
2023-01-22T23:06:11.818Z,98478.91
2023-01-22T23:08:40.187Z,98485.69
2023-01-22T23:11:09.536Z,98486.56
2023-01-22T23:13:36.779Z,98495.91
2023-01-22T23:16:08.403Z,98494.19
2023-01-22T23:18:38.600Z,98493.31
2023-01-22T23:21:16.258Z,98488.22
2023-01-22T23:23:42.956Z,98483.06
2023-01-22T23:26:12.817Z,98475.44
2023-01-22T23:28:40.242Z,98473.75
2023-01-22T23:31:15.531Z,98480.53
2023-01-22T23:33:42.919Z,98485.59
2023-01-22T23:36:13.305Z,98479.69
2023-01-22T23:38:40.127Z,98483.91
2023-01-22T23:41:09.900Z,98491.63
2023-01-22T23:43:38.625Z,98494.19
2023-01-22T23:46:16.332Z,98496.75
2023-01-22T23:48:43.026Z,98490.00
2023-01-22T23:51:11.812Z,98493.38
2023-01-22T23:53:40.324Z,98489.97
2023-01-22T23:56:07.620Z,98497.63
2023-01-22T23:58:35.177Z,98492.50
